createdAt,value
2018-03-26T00:01:13.824Z,97222.79
2018-03-26T00:03:41.423Z,97219.44
2018-03-26T00:06:09.133Z,97219.80
2018-03-26T00:08:36.808Z,97216.06
2018-03-26T00:11:04.444Z,97217.64
2018-03-26T00:15:58.955Z,97222.36
2018-03-26T00:18:26.557Z,97224.47
2018-03-26T00:23:28.209Z,97225.71
2018-03-26T00:25:56.017Z,97222.13
2018-03-26T00:28:23.718Z,97222.91
2018-03-26T00:30:51.309Z,97219.52
2018-03-26T00:33:19.041Z,97222.16
2018-03-26T00:35:46.708Z,97220.42
2018-03-26T00:38:14.379Z,97223.89
2018-03-26T00:40:42.068Z,97221.57
2018-03-26T00:43:09.674Z,97226.33
2018-03-26T00:45:37.373Z,97234.66
2018-03-26T00:48:04.983Z,97242.02
2018-03-26T00:50:32.593Z,97237.48
2018-03-26T00:53:00.265Z,97240.27
2018-03-26T00:55:27.891Z,97241.28
2018-03-26T00:57:55.563Z,97245.98
2018-03-26T01:00:23.177Z,97250.13
2018-03-26T01:02:50.867Z,97256.03
2018-03-26T01:05:18.704Z,97254.12
2018-03-26T01:07:46.388Z,97251.06
2018-03-26T01:10:14.063Z,97247.14
2018-03-26T01:12:41.796Z,97249.12
2018-03-26T01:15:09.483Z,97249.05
2018-03-26T01:17:37.193Z,97249.44
2018-03-26T01:20:04.870Z,97254.03
2018-03-26T01:22:32.596Z,97260.30
2018-03-26T01:25:00.278Z,97261.13
2018-03-26T01:27:27.988Z,97259.37
2018-03-26T01:29:55.672Z,97262.97
2018-03-26T01:32:23.351Z,97250.97
2018-03-26T01:34:51.176Z,97257.91
2018-03-26T01:37:18.858Z,97255.25
2018-03-26T01:39:46.464Z,97263.77
2018-03-26T01:42:14.152Z,97260.42
2018-03-26T01:44:41.865Z,97263.13
2018-03-26T01:47:09.560Z,97268.23
2018-03-26T01:49:37.239Z,97269.07
2018-03-26T01:52:04.863Z,97270.89
2018-03-26T01:54:32.468Z,97273.94
2018-03-26T01:57:00.153Z,97274.44
2018-03-26T01:59:27.856Z,97266.43
2018-03-26T02:01:55.526Z,97265.76
2018-03-26T02:04:23.132Z,97274.02
2018-03-26T02:06:50.724Z,97268.78
2018-03-26T02:09:18.757Z,97276.38
2018-03-26T02:11:46.424Z,97275.21
2018-03-26T02:14:14.093Z,97278.58
2018-03-26T02:16:41.787Z,97280.03
2018-03-26T02:19:09.456Z,97273.34
2018-03-26T02:21:37.149Z,97270.24
2018-03-26T02:24:04.812Z,97279.26
2018-03-26T02:26:32.803Z,97276.98
2018-03-26T02:29:00.471Z,97279.09
2018-03-26T02:31:28.149Z,97282.03
2018-03-26T02:33:55.843Z,97282.41
2018-03-26T02:36:23.518Z,97281.89
2018-03-26T02:38:51.635Z,97282.95
2018-03-26T02:41:19.312Z,97280.19
2018-03-26T02:43:46.986Z,97283.37
2018-03-26T02:46:14.680Z,97282.28
2018-03-26T02:48:42.347Z,97288.43
2018-03-26T02:51:09.970Z,97283.67
2018-03-26T02:53:37.569Z,97287.92
2018-03-26T02:56:05.280Z,97290.70
2018-03-26T02:58:32.954Z,97284.42
2018-03-26T03:01:00.626Z,97295.13
2018-03-26T03:03:28.250Z,97292.98
2018-03-26T03:05:55.844Z,97294.73
2018-03-26T03:08:23.460Z,97287.41
2018-03-26T03:10:51.133Z,97290.45
2018-03-26T03:13:18.846Z,97292.73
2018-03-26T03:15:46.435Z,97296.63
2018-03-26T03:18:14.116Z,97292.26
2018-03-26T03:20:41.815Z,97306.51
2018-03-26T03:23:09.483Z,97303.28
2018-03-26T03:25:37.187Z,97298.61
2018-03-26T03:28:04.855Z,97301.00
2018-03-26T03:30:32.481Z,97311.58
2018-03-26T03:33:00.149Z,97309.66
2018-03-26T03:35:27.856Z,97310.93
2018-03-26T03:37:55.521Z,97304.16
2018-03-26T03:40:23.206Z,97303.23
2018-03-26T03:42:50.900Z,97309.48
2018-03-26T03:45:18.591Z,97320.42
2018-03-26T03:47:46.284Z,97318.02
2018-03-26T03:50:13.967Z,97315.39
2018-03-26T03:52:42.099Z,97314.27
2018-03-26T03:55:09.798Z,97322.57
2018-03-26T03:57:37.474Z,97317.61
2018-03-26T04:00:05.197Z,97317.25
2018-03-26T04:02:32.884Z,97322.34
2018-03-26T04:05:00.588Z,97323.89
2018-03-26T04:07:28.292Z,97333.01
2018-03-26T04:09:56.264Z,97334.71
2018-03-26T04:12:23.948Z,97332.11
2018-03-26T04:14:51.624Z,97337.42
2018-03-26T04:17:19.241Z,97334.28
2018-03-26T04:19:46.910Z,97334.53
2018-03-26T04:22:14.734Z,97348.14
2018-03-26T04:24:42.399Z,97339.84
2018-03-26T04:27:10.097Z,97348.72
2018-03-26T04:29:37.791Z,97343.94
2018-03-26T04:32:05.529Z,97338.80
2018-03-26T04:34:33.203Z,97346.29
2018-03-26T04:37:00.880Z,97344.55
2018-03-26T04:39:28.500Z,97346.61
2018-03-26T04:41:56.181Z,97349.55
2018-03-26T04:44:23.936Z,97361.55
2018-03-26T04:46:51.524Z,97361.16
2018-03-26T04:49:19.115Z,97352.73
2018-03-26T04:51:46.735Z,97363.14
2018-03-26T04:54:14.342Z,97360.58
2018-03-26T04:56:41.954Z,97359.88
2018-03-26T04:59:09.556Z,97365.20
2018-03-26T05:01:37.579Z,97368.27
2018-03-26T05:04:05.186Z,97367.73
2018-03-26T05:09:06.647Z,97367.97
2018-03-26T05:11:34.256Z,97368.23
2018-03-26T05:14:01.878Z,97378.52
2018-03-26T05:16:29.481Z,97373.57
2018-03-26T05:18:57.110Z,97371.14
2018-03-26T05:21:24.717Z,97377.30
2018-03-26T05:23:52.319Z,97390.38
2018-03-26T05:26:19.944Z,97391.16
2018-03-26T05:28:47.627Z,97390.48
2018-03-26T05:31:15.233Z,97394.86
2018-03-26T05:33:42.836Z,97392.95
2018-03-26T05:36:10.793Z,97385.07
2018-03-26T05:38:38.392Z,97391.36
2018-03-26T05:41:05.988Z,97395.63
2018-03-26T05:43:33.681Z,97389.95
2018-03-26T05:46:01.275Z,97392.91
2018-03-26T05:48:29.001Z,97399.25
2018-03-26T05:50:56.672Z,97403.70
2018-03-26T05:53:24.273Z,97409.25
2018-03-26T05:55:51.969Z,97400.94
2018-03-26T05:58:19.671Z,97412.83
2018-03-26T06:00:47.611Z,97419.66
2018-03-26T06:03:15.280Z,97415.84
2018-03-26T06:05:42.970Z,97417.96
2018-03-26T06:08:10.672Z,97418.22
2018-03-26T06:10:38.370Z,97416.03
2018-03-26T06:13:05.988Z,97409.00
2018-03-26T06:15:33.708Z,97416.19
2018-03-26T06:18:01.310Z,97423.53
2018-03-26T06:20:28.983Z,97428.67
2018-03-26T06:22:56.628Z,97422.77
2018-03-26T06:25:24.226Z,97426.08
2018-03-26T06:27:51.821Z,97428.27
2018-03-26T06:30:19.454Z,97428.93
2018-03-26T06:32:47.152Z,97434.96
2018-03-26T06:35:14.918Z,97440.42
2018-03-26T06:37:47.973Z,97439.50
2018-03-26T06:40:15.621Z,97440.34
2018-03-26T06:42:44.760Z,97442.70
2018-03-26T06:45:12.362Z,97445.60
2018-03-26T06:47:39.989Z,97448.49
2018-03-26T06:50:07.588Z,97450.84
2018-03-26T06:52:35.210Z,97447.06
2018-03-26T06:55:02.832Z,97442.20
2018-03-26T06:57:30.496Z,97450.27
2018-03-26T06:59:58.089Z,97450.70
2018-03-26T07:02:25.692Z,97455.36
2018-03-26T07:04:53.312Z,97453.69
2018-03-26T07:07:20.903Z,97453.63
2018-03-26T07:09:48.546Z,97460.17
2018-03-26T07:12:16.143Z,97452.83
2018-03-26T07:14:43.879Z,97454.66
2018-03-26T07:17:11.471Z,97458.33
2018-03-26T07:19:39.060Z,97459.98
2018-03-26T07:22:06.692Z,97463.45
2018-03-26T07:24:34.291Z,97456.22
2018-03-26T07:27:02.135Z,97455.28
2018-03-26T07:29:29.739Z,97459.69
2018-03-26T07:31:57.348Z,97483.03
2018-03-26T07:34:24.969Z,97508.87
2018-03-26T07:36:52.555Z,97495.11
2018-03-26T07:39:20.182Z,97489.11
2018-03-26T07:41:47.767Z,97508.05
2018-03-26T07:44:15.559Z,97515.41
2018-03-26T07:46:43.169Z,97507.12
2018-03-26T07:49:10.769Z,97495.39
2018-03-26T07:51:38.390Z,97530.25
2018-03-26T07:54:06.117Z,97514.76
2018-03-26T07:56:33.829Z,97518.02
2018-03-26T07:59:01.863Z,97525.90
2018-03-26T08:01:29.927Z,97535.65
2018-03-26T08:03:57.593Z,97540.22
2018-03-26T08:06:25.180Z,97535.23
2018-03-26T08:08:52.871Z,97536.91
2018-03-26T08:11:20.553Z,97542.28
2018-03-26T08:13:48.249Z,97544.75
2018-03-26T08:16:15.908Z,97550.22
2018-03-26T08:18:43.763Z,97538.41
2018-03-26T08:21:11.377Z,97544.22
2018-03-26T08:23:38.963Z,97555.20
2018-03-26T08:26:06.588Z,97548.70
2018-03-26T08:28:34.171Z,97548.84
2018-03-26T08:31:01.798Z,97551.43
2018-03-26T08:33:29.414Z,97556.13
2018-03-26T08:35:57.212Z,97551.70
2018-03-26T08:38:24.825Z,97554.10
2018-03-26T08:40:52.469Z,97560.23
2018-03-26T08:43:20.060Z,97555.87
2018-03-26T08:45:47.700Z,97557.55
2018-03-26T08:48:15.316Z,97552.02
2018-03-26T08:50:43.102Z,97557.28
2018-03-26T08:53:11.056Z,97569.06
2018-03-26T08:55:38.647Z,97567.89
2018-03-26T08:58:06.249Z,97568.41
2018-03-26T09:00:33.868Z,97572.35
2018-03-26T09:03:01.497Z,97576.70
2018-03-26T09:05:29.115Z,97576.23
2018-03-26T09:07:56.720Z,97574.93
2018-03-26T09:10:24.380Z,97568.27
2018-03-26T09:12:51.979Z,97575.30
2018-03-26T09:15:20.030Z,97574.72
2018-03-26T09:17:48.004Z,97574.03
2018-03-26T09:20:15.666Z,97574.31
2018-03-26T09:22:43.278Z,97568.36
2018-03-26T09:25:10.877Z,97570.02
2018-03-26T09:27:38.825Z,97574.73
2018-03-26T09:30:06.446Z,97581.21
2018-03-26T09:32:34.881Z,97590.09
2018-03-26T09:35:02.544Z,97595.02
2018-03-26T09:37:30.159Z,97584.95
2018-03-26T09:39:57.789Z,97578.61
2018-03-26T09:42:25.388Z,97582.92
2018-03-26T09:44:53.520Z,97584.03
2018-03-26T09:47:21.490Z,97592.24
2018-03-26T09:49:49.089Z,97597.66
2018-03-26T09:52:16.717Z,97594.83
2018-03-26T09:54:44.316Z,97603.62
2018-03-26T09:57:11.959Z,97604.32
2018-03-26T09:59:39.580Z,97610.78
2018-03-26T10:02:07.206Z,97610.06
2018-03-26T10:04:34.816Z,97606.64
2018-03-26T10:07:02.664Z,97609.77
2018-03-26T10:09:30.263Z,97613.21
2018-03-26T10:11:57.867Z,97618.67
2018-03-26T10:14:25.721Z,97609.63
2018-03-26T10:16:53.571Z,97613.40
2018-03-26T10:19:21.196Z,97615.08
2018-03-26T10:21:48.799Z,97606.75
2018-03-26T10:24:16.467Z,97603.95
2018-03-26T10:26:44.067Z,97610.11
2018-03-26T10:29:11.707Z,97610.92
2018-03-26T10:31:39.299Z,97612.81
2018-03-26T10:34:06.919Z,97610.11
2018-03-26T10:36:34.540Z,97607.02
2018-03-26T10:39:02.138Z,97608.48
2018-03-26T10:41:29.756Z,97610.12
2018-03-26T10:43:57.812Z,97607.03
2018-03-26T10:46:25.748Z,97607.70
2018-03-26T10:48:53.339Z,97611.17
2018-03-26T10:51:20.940Z,97612.66
2018-03-26T10:53:48.556Z,97610.80
2018-03-26T10:56:16.172Z,97623.72
2018-03-26T10:58:43.789Z,97619.78
2018-03-26T11:01:11.405Z,97623.64
2018-03-26T11:03:39.043Z,97622.22
2018-03-26T11:06:06.900Z,97618.09
2018-03-26T11:08:34.801Z,97623.82
2018-03-26T11:11:02.773Z,97625.34
2018-03-26T11:13:31.110Z,97624.48
2018-03-26T11:15:59.183Z,97623.97
2018-03-26T11:18:27.054Z,97622.87
2018-03-26T11:20:55.293Z,97619.02
2018-03-26T11:23:23.191Z,97617.90
2018-03-26T11:25:51.056Z,97615.86
2018-03-26T11:28:19.130Z,97626.09
2018-03-26T11:30:46.975Z,97615.68
2018-03-26T11:33:14.604Z,97623.58
2018-03-26T11:35:43.137Z,97621.83
2018-03-26T11:38:10.796Z,97622.33
2018-03-26T11:40:38.431Z,97621.93
2018-03-26T11:43:06.028Z,97616.17
2018-03-26T11:45:33.994Z,97618.00
2018-03-26T11:48:01.862Z,97615.97
2018-03-26T11:50:29.517Z,97611.07
2018-03-26T11:52:57.144Z,97615.25
2018-03-26T11:55:24.759Z,97605.91
2018-03-26T11:57:52.364Z,97611.95
2018-03-26T12:00:20.003Z,97614.28
2018-03-26T12:02:47.849Z,97611.56
2018-03-26T12:05:16.547Z,97613.55
2018-03-26T12:07:44.134Z,97618.31
2018-03-26T12:10:11.732Z,97612.72
2018-03-26T12:12:39.356Z,97625.76
2018-03-26T12:15:06.956Z,97630.03
2018-03-26T12:17:34.597Z,97621.73
2018-03-26T12:20:14.769Z,97624.95
2018-03-26T12:22:42.913Z,97627.01
2018-03-26T12:25:13.235Z,97625.13
2018-03-26T12:27:52.824Z,97625.61
2018-03-26T12:30:20.431Z,97615.55
2018-03-26T12:32:48.027Z,97619.05
2018-03-26T12:35:27.457Z,97619.56
2018-03-26T12:37:55.062Z,97617.20
2018-03-26T12:40:34.496Z,97617.16
2018-03-26T12:43:02.116Z,97624.14
2018-03-26T12:45:41.910Z,97631.47
2018-03-26T12:48:09.497Z,97627.25
2018-03-26T12:50:49.199Z,97623.02
2018-03-26T12:53:17.067Z,97626.05
2018-03-26T12:55:44.663Z,97626.74
2018-03-26T12:58:24.076Z,97631.55
2018-03-26T13:01:03.696Z,97629.27
2018-03-26T13:03:31.325Z,97629.11
2018-03-26T13:05:59.102Z,97630.39
2018-03-26T13:08:26.888Z,97628.04
2018-03-26T13:10:54.479Z,97633.80
2018-03-26T13:13:22.070Z,97627.24
2018-03-26T13:15:49.704Z,97633.09
2018-03-26T13:18:17.300Z,97629.53
2018-03-26T13:20:45.275Z,97627.75
2018-03-26T13:23:13.900Z,97623.64
2018-03-26T13:25:41.763Z,97631.30
2018-03-26T13:28:09.635Z,97629.49
2018-03-26T13:30:37.603Z,97630.22
2018-03-26T13:33:05.200Z,97627.81
2018-03-26T13:35:32.797Z,97630.87
2018-03-26T13:38:00.801Z,97625.89
2018-03-26T13:40:28.763Z,97631.48
2018-03-26T13:42:56.822Z,97632.08
2018-03-26T13:45:25.108Z,97636.17
2018-03-26T13:47:52.700Z,97629.13
2018-03-26T13:50:20.733Z,97632.05
2018-03-26T13:52:48.711Z,97631.97
2018-03-26T13:55:16.331Z,97633.63
2018-03-26T13:57:43.936Z,97632.53
2018-03-26T14:00:11.576Z,97640.12
2018-03-26T14:02:39.168Z,97645.06
2018-03-26T14:05:06.772Z,97644.73
2018-03-26T14:07:34.395Z,97648.42
2018-03-26T14:10:13.792Z,97647.33
2018-03-26T14:12:53.344Z,97647.73
2018-03-26T14:15:32.701Z,97643.06
2018-03-26T14:18:01.101Z,97645.44
2018-03-26T14:20:29.046Z,97649.38
2018-03-26T14:22:57.019Z,97647.86
2018-03-26T14:25:24.639Z,97640.53
2018-03-26T14:27:52.233Z,97645.45
2018-03-26T14:30:19.845Z,97643.14
2018-03-26T14:32:47.476Z,97642.48
2018-03-26T14:38:29.361Z,97648.52
2018-03-26T14:40:56.970Z,97667.09
2018-03-26T14:43:24.588Z,97670.39
2018-03-26T14:45:52.226Z,97670.89
2018-03-26T14:48:20.042Z,97681.20
2018-03-26T14:50:47.995Z,97687.85
2018-03-26T14:53:15.967Z,97691.73
2018-03-26T14:55:43.561Z,97693.02
2018-03-26T14:58:11.152Z,97697.30
2018-03-26T15:00:38.937Z,97693.69
2018-03-26T15:03:06.541Z,97696.47
2018-03-26T15:05:34.125Z,97700.64
2018-03-26T15:08:01.748Z,97706.77
2018-03-26T15:10:29.363Z,97702.73
2018-03-26T15:12:56.963Z,97708.80
2018-03-26T15:15:24.595Z,97700.36
2018-03-26T15:17:52.272Z,97702.23
2018-03-26T15:20:20.170Z,97705.58
2018-03-26T15:22:48.051Z,97696.17
2018-03-26T15:25:15.645Z,97705.33
2018-03-26T15:27:43.331Z,97703.29
2018-03-26T15:30:10.954Z,97693.73
2018-03-26T15:32:38.543Z,97703.33
2018-03-26T15:35:06.130Z,97703.34
2018-03-26T15:37:33.766Z,97704.19
2018-03-26T15:40:01.360Z,97705.97
2018-03-26T15:42:29.043Z,97699.46
2018-03-26T15:44:56.668Z,97704.38
2018-03-26T15:47:24.280Z,97708.22
2018-03-26T15:49:52.432Z,97699.41
2018-03-26T15:52:20.378Z,97703.69
2018-03-26T15:54:47.988Z,97704.73
2018-03-26T15:57:15.576Z,97707.61
2018-03-26T15:59:43.456Z,97713.17
2018-03-26T16:02:15.314Z,97711.23
2018-03-26T16:04:42.928Z,97715.82
2018-03-26T16:07:10.640Z,97720.27
2018-03-26T16:09:38.242Z,97716.17
2018-03-26T16:12:05.847Z,97715.69
2018-03-26T16:14:33.476Z,97713.48
2018-03-26T16:17:01.081Z,97718.97
2018-03-26T16:19:28.748Z,97713.69
2018-03-26T16:21:56.386Z,97722.20
2018-03-26T16:24:23.984Z,97718.91
2018-03-26T16:26:51.580Z,97713.98
2018-03-26T16:29:19.214Z,97716.58
2018-03-26T16:31:46.812Z,97720.86
2018-03-26T16:34:14.520Z,97726.42
2018-03-26T16:36:42.142Z,97725.39
2018-03-26T16:39:09.741Z,97738.02
2018-03-26T16:41:47.390Z,97734.15
2018-03-26T16:44:14.987Z,97738.18
2018-03-26T16:46:42.588Z,97740.67
2018-03-26T16:49:10.213Z,97738.77
2018-03-26T16:51:37.803Z,97743.19
2018-03-26T16:54:05.405Z,97742.70
2018-03-26T16:56:33.040Z,97750.37
2018-03-26T16:59:00.637Z,97745.85
2018-03-26T17:01:28.326Z,97747.33
2018-03-26T17:03:55.982Z,97744.19
2018-03-26T17:06:23.659Z,97744.28
2018-03-26T17:08:51.319Z,97747.39
2018-03-26T17:11:18.951Z,97746.78
2018-03-26T17:13:46.540Z,97750.45
2018-03-26T17:16:14.136Z,97746.09
2018-03-26T17:18:41.788Z,97749.27
2018-03-26T17:21:09.430Z,97751.61
2018-03-26T17:23:36.979Z,97761.47
2018-03-26T17:26:04.618Z,97753.25
2018-03-26T17:28:32.204Z,97753.05
2018-03-26T17:30:59.804Z,97757.39
2018-03-26T17:33:27.424Z,97763.91
2018-03-26T17:35:55.028Z,97763.56
2018-03-26T17:38:22.620Z,97760.83
2018-03-26T17:40:50.239Z,97757.84
2018-03-26T17:43:17.848Z,97764.66
2018-03-26T17:45:45.444Z,97759.84
2018-03-26T17:48:13.086Z,97762.81
2018-03-26T17:50:40.688Z,97766.02
2018-03-26T17:53:08.611Z,97771.41
2018-03-26T17:55:36.241Z,97770.72
2018-03-26T17:58:03.860Z,97774.34
2018-03-26T18:00:31.469Z,97771.42
2018-03-26T18:02:59.101Z,97775.55
2018-03-26T18:05:26.696Z,97776.57
2018-03-26T18:07:54.296Z,97778.62
2018-03-26T18:10:22.054Z,97781.92
2018-03-26T18:12:49.651Z,97787.15
2018-03-26T18:15:17.268Z,97787.53
2018-03-26T18:17:44.888Z,97790.62
2018-03-26T18:20:12.490Z,97792.02
2018-03-26T18:22:40.093Z,97798.02
2018-03-26T18:25:07.783Z,97796.94
2018-03-26T18:27:35.378Z,97800.11
2018-03-26T18:30:02.985Z,97801.16
2018-03-26T18:32:30.615Z,97798.53
2018-03-26T18:34:58.212Z,97805.81
2018-03-26T18:37:25.806Z,97809.97
2018-03-26T18:39:53.428Z,97806.48
2018-03-26T18:42:21.024Z,97811.27
2018-03-26T18:44:48.615Z,97819.25
2018-03-26T18:47:16.251Z,97819.00
2018-03-26T18:49:43.873Z,97817.29
2018-03-26T18:52:11.495Z,97816.16
2018-03-26T18:54:39.123Z,97818.39
2018-03-26T18:57:06.711Z,97817.89
2018-03-26T18:59:34.300Z,97821.38
2018-03-26T19:02:01.941Z,97820.04
2018-03-26T19:04:29.537Z,97821.06
2018-03-26T19:06:57.124Z,97822.10
2018-03-26T19:09:24.762Z,97827.48
2018-03-26T19:11:52.365Z,97825.20
2018-03-26T19:14:19.964Z,97827.55
2018-03-26T19:16:47.651Z,97826.88
2018-03-26T19:19:15.220Z,97829.45
2018-03-26T19:21:42.816Z,97829.41
2018-03-26T19:24:10.442Z,97833.49
2018-03-26T19:26:38.036Z,97835.48
2018-03-26T19:29:05.652Z,97837.83
2018-03-26T19:31:33.287Z,97839.31
2018-03-26T19:34:00.880Z,97844.50
2018-03-26T19:36:28.776Z,97839.52
2018-03-26T19:38:56.408Z,97841.95
2018-03-26T19:41:24.000Z,97836.86
2018-03-26T19:43:51.605Z,97834.70
2018-03-26T19:46:19.280Z,97828.30
2018-03-26T19:48:46.907Z,97832.64
2018-03-26T19:51:14.507Z,97838.75
2018-03-26T19:53:42.137Z,97836.06
2018-03-26T19:56:09.875Z,97839.21
2018-03-26T19:58:37.458Z,97833.58
2018-03-26T20:01:05.218Z,97832.77
2018-03-26T20:03:32.888Z,97840.48
2018-03-26T20:06:00.485Z,97841.64
2018-03-26T20:08:28.114Z,97839.85
2018-03-26T20:10:55.711Z,97840.59
2018-03-26T20:13:23.299Z,97846.33
2018-03-26T20:15:50.928Z,97851.64
2018-03-26T20:18:18.519Z,97847.96
2018-03-26T20:20:46.112Z,97847.44
2018-03-26T20:23:13.791Z,97842.59
2018-03-26T20:25:41.372Z,97850.68
2018-03-26T20:28:08.968Z,97848.14
2018-03-26T20:30:36.588Z,97845.89
2018-03-26T20:33:04.327Z,97854.13
2018-03-26T20:35:31.921Z,97852.59
2018-03-26T20:37:59.551Z,97851.03
2018-03-26T20:40:27.152Z,97845.89
2018-03-26T20:42:54.754Z,97847.36
2018-03-26T20:45:22.408Z,97841.03
2018-03-26T20:47:49.999Z,97842.69
2018-03-26T20:50:17.600Z,97838.41
2018-03-26T20:52:45.223Z,97842.63
2018-03-26T20:55:12.875Z,97838.48
2018-03-26T20:57:40.525Z,97837.45
2018-03-26T21:00:09.108Z,97834.48
2018-03-26T21:02:36.707Z,97833.77
2018-03-26T21:05:04.326Z,97834.11
2018-03-26T21:07:32.065Z,97836.95
2018-03-26T21:09:59.745Z,97834.36
2018-03-26T21:12:27.473Z,97837.72
2018-03-26T21:14:55.105Z,97831.46
2018-03-26T21:17:22.697Z,97828.89
2018-03-26T21:19:50.308Z,97829.44
2018-03-26T21:22:17.932Z,97835.62
2018-03-26T21:24:45.532Z,97832.53
2018-03-26T21:27:13.135Z,97834.52
2018-03-26T21:29:40.767Z,97835.40
2018-03-26T21:32:08.371Z,97835.77
2018-03-26T21:34:35.968Z,97838.30
2018-03-26T21:37:03.620Z,97833.55
2018-03-26T21:39:31.226Z,97844.87
2018-03-26T21:41:58.819Z,97839.37
2018-03-26T21:44:26.454Z,97838.20
2018-03-26T21:46:54.068Z,97839.50
2018-03-26T21:49:21.676Z,97841.14
2018-03-26T21:51:49.309Z,97847.20
2018-03-26T21:54:16.904Z,97839.57
2018-03-26T21:56:44.496Z,97837.61
2018-03-26T21:59:12.123Z,97837.09
2018-03-26T22:01:39.733Z,97841.56
2018-03-26T22:04:07.324Z,97843.05
2018-03-26T22:06:34.954Z,97841.31
2018-03-26T22:09:02.585Z,97849.13
2018-03-26T22:11:30.176Z,97841.50
2018-03-26T22:13:57.831Z,97844.37
2018-03-26T22:16:25.429Z,97841.25
2018-03-26T22:18:53.796Z,97842.80
2018-03-26T22:21:21.426Z,97841.17
2018-03-26T22:23:49.090Z,97839.44
2018-03-26T22:26:16.684Z,97840.59
2018-03-26T22:28:44.328Z,97839.78
2018-03-26T22:31:11.949Z,97846.80
2018-03-26T22:33:39.540Z,97839.14
2018-03-26T22:36:07.179Z,97839.72
2018-03-26T22:38:34.781Z,97836.92
2018-03-26T22:41:02.374Z,97834.20
2018-03-26T22:43:29.992Z,97839.61
2018-03-26T22:45:57.600Z,97842.84
2018-03-26T22:48:25.187Z,97843.82
2018-03-26T22:50:52.986Z,97845.84
2018-03-26T22:53:20.604Z,97841.86
2018-03-26T22:55:48.224Z,97846.58
2018-03-26T22:58:15.872Z,97848.25
2018-03-26T23:00:43.460Z,97843.75
2018-03-26T23:03:11.044Z,97848.48
2018-03-26T23:05:38.664Z,97850.18
2018-03-26T23:08:06.247Z,97846.52
2018-03-26T23:10:33.849Z,97847.24
2018-03-26T23:13:01.476Z,97853.27
2018-03-26T23:15:29.073Z,97852.20
2018-03-26T23:17:56.669Z,97854.18
2018-03-26T23:20:24.651Z,97857.20
2018-03-26T23:22:52.248Z,97856.06
2018-03-26T23:25:19.845Z,97856.17
2018-03-26T23:27:47.475Z,97855.66
2018-03-26T23:30:15.100Z,97860.41
2018-03-26T23:32:42.764Z,97849.45
2018-03-26T23:35:10.383Z,97847.58
2018-03-26T23:37:37.976Z,97848.26
2018-03-26T23:40:05.571Z,97845.39
2018-03-26T23:42:33.219Z,97842.97
2018-03-26T23:45:00.815Z,97842.45
2018-03-26T23:47:28.427Z,97839.14
2018-03-26T23:49:56.076Z,97841.32
2018-03-26T23:52:23.673Z,97841.18
2018-03-26T23:54:51.277Z,97837.72
2018-03-26T23:57:18.913Z,97842.14
2018-03-26T23:59:46.518Z,97840.38
